Detalii statie AGROMEC VLAD TEPES [00001989]

Toti senzorii

Date Temperatura solului [C]Precipitatii [mm]Voltaj baterie [mV]Leaf Wetness [Min]HC Air temperature [C]HC Relative humidity [%]Punctul de roua [C]
medieminmaxsumaultimatimpmedieminmaxmediemediemin
2017-12-11 05:10:00 8 8 8 0 6082
2017-12-11 06:00:00 2.5 2.5 2.8 0 6190
2017-12-11 06:01:00 8 8 8 0 6112
2017-12-11 07:00:00 2.5 2.5 2.8 0 6162
2017-12-11 07:01:00 7.9 7.9 7.9 0 6082
2017-12-11 08:00:00 2.4 2.3 2.6 0 6142
2017-12-11 08:01:00 7.9 7.9 7.9 0 6082
2017-12-11 09:00:00 2.4 2.3 2.7 0 6356
2017-12-11 09:14:00 7.9 7.9 7.9 0 6142
2017-12-11 10:00:00 2.8 2.3 7.1 0 6756
2017-12-11 11:00:00 2.4 2.3 2.5 0 6904
2017-12-11 12:00:00 2.3 2.2 2.5 0 6874
2017-12-11 13:00:00 2.3 2.2 2.5 0 6796
2017-12-11 14:00:00 2.3 2.3 2.5 0 6738
2017-12-11 15:00:00 2.5 2.4 2.7 0 6698
2017-12-11 16:00:00 2.7 2.6 2.8 0 6640
2017-12-11 17:00:00 2.8 2.8 3 0 6620
2017-12-11 18:00:00 2.9 2.8 3 0 6610
2017-12-11 19:00:00 2.9 2.8 3 0 6600
2017-12-11 20:00:00 2.8 2.7 2.9 0 6590
2017-12-11 21:00:00 2.8 2.6 2.9 0 6590
2017-12-11 22:00:00 2.7 2.6 2.8 0 6590
2017-12-11 23:00:00 2.6 2.6 2.9 0 6582
2017-12-12 00:00:00 2.5 2.5 2.7 0 6582
2017-12-12 01:00:00 3.7 2.5 8.1 0 6474 0.65 0.06 0.86 13.67 0
2017-12-12 02:00:00 3 2.4 8 0 6416 0.01 -0.38 0.54 82.62 -2.6 -5
2017-12-12 03:00:00 2.4 2.4 2.6 0 6376 0.24 -0.34 0.87 85.77 -2.1 -9.1
2017-12-12 04:00:00 2.9 2.2 7.7 0 6356 0.76 0.37 1.39 44.16 0
2017-12-12 05:00:00 2.4 2.3 2.5 0 6308 1.16 0.86 1.68 74.99 -3.3 -15.4
2017-12-12 06:00:00 3.2 2.2 7.7 0 6240 0.61 -0.03 1.19 43.86 -11.4 -23.5
2017-12-12 07:00:00 2.3 2.2 2.5 0 6230 0.62 0.47 0.85 64.17 -5.5 -10.4
2017-12-12 08:00:00 2.7 2.1 7.6 0 6132 0.55 0.13 1.22 27.59 -16.4 -21
2017-12-12 09:00:00 2.2 2 2.4 0 6346 1.84 1.36 2.55 57.81 -5.9 -9.7
2017-12-12 10:00:00 2.7 2.1 7.6 0 6942 4.39 3.02 5.67 19.59 -19.3 -31.1
2017-12-12 11:00:00 2.7 2.1 7.5 0 6972 6.78 5.67 7.74 11.15 0
2017-12-12 12:00:00 2.4 2.1 3 0 6884 7.61 7.43 7.88 16.96 0
2017-12-12 13:00:00 2.7 2.5 3.2 0 6786 9 8.09 9.93 19.23 -14.7 -26.2
2017-12-12 14:00:00 3 2.8 3.6 0 6708 10.61 9.96 11.02 4.34 -11.3 0
2017-12-12 15:00:00 3.4 3.3 3.7 0 6630 10.34 9.72 10.88 5.3 -10.2 0
2017-12-12 16:00:00 3.8 3.6 4.5 0 6640 9.78 9.51 10.01 9.04 -7.3 0
2017-12-12 17:00:00 3.9 3.8 4.1 0 6610 7.93 7.33 9.1 0 0 0
2017-12-12 18:00:00 4 4 4.2 0 6572 6.96 6.33 7.78 2.26 -3.3 0
2017-12-12 19:00:00 4 3.9 4.1 0 6590 6.87 6.68 7.25 0 0 0
2017-12-12 20:00:00 4 3.8 4.2 0 6562 6.31 5.71 6.79 0 0 0